sensor_id;sensor_type;location;lat;lon;timestamp;P1;durP1;ratioP1;P2;durP2;ratioP2
26223;SDS011;14820;48.682;8.890;2022-10-16T00:00:42;4.15;;;1.90;;
26223;SDS011;14820;48.682;8.890;2022-10-16T00:03:08;3.53;;;2.08;;
26223;SDS011;14820;48.682;8.890;2022-10-16T00:05:38;2.83;;;1.50;;
26223;SDS011;14820;48.682;8.890;2022-10-16T00:08:06;3.85;;;1.55;;
26223;SDS011;14820;48.682;8.890;2022-10-16T00:10:33;3.08;;;1.58;;
26223;SDS011;14820;48.682;8.890;2022-10-16T00:12:59;3.03;;;1.80;;
26223;SDS011;14820;48.682;8.890;2022-10-16T00:15:24;2.40;;;1.60;;
26223;SDS011;14820;48.682;8.890;2022-10-16T00:17:50;3.03;;;1.67;;
26223;SDS011;14820;48.682;8.890;2022-10-16T00:20:15;6.30;;;1.75;;
26223;SDS011;14820;48.682;8.890;2022-10-16T00:22:41;1.83;;;1.20;;
26223;SDS011;14820;48.682;8.890;2022-10-16T00:25:07;4.70;;;1.48;;
26223;SDS011;14820;48.682;8.890;2022-10-16T00:27:33;2.33;;;1.65;;
26223;SDS011;14820;48.682;8.890;2022-10-16T00:29:59;5.10;;;2.10;;
26223;SDS011;14820;48.682;8.890;2022-10-16T00:32:24;5.65;;;1.80;;
26223;SDS011;14820;48.682;8.890;2022-10-16T00:34:50;2.53;;;1.92;;
26223;SDS011;14820;48.682;8.890;2022-10-16T00:37:15;2.92;;;1.77;;
26223;SDS011;14820;48.682;8.890;2022-10-16T00:39:41;4.85;;;1.58;;
26223;SDS011;14820;48.682;8.890;2022-10-16T00:42:09;3.67;;;1.77;;
26223;SDS011;14820;48.682;8.890;2022-10-16T00:44:49;3.53;;;1.80;;
26223;SDS011;14820;48.682;8.890;2022-10-16T00:47:30;3.10;;;1.73;;
26223;SDS011;14820;48.682;8.890;2022-10-16T00:52:48;2.58;;;2.00;;
26223;SDS011;14820;48.682;8.890;2022-10-16T00:55:16;6.20;;;1.83;;
26223;SDS011;14820;48.682;8.890;2022-10-16T00:57:42;2.58;;;1.75;;
26223;SDS011;14820;48.682;8.890;2022-10-16T01:00:10;3.15;;;1.67;;
26223;SDS011;14820;48.682;8.890;2022-10-16T01:02:38;3.63;;;1.50;;
26223;SDS011;14820;48.682;8.890;2022-10-16T01:05:04;4.03;;;1.65;;
26223;SDS011;14820;48.682;8.890;2022-10-16T01:10:14;2.42;;;1.60;;
26223;SDS011;14820;48.682;8.890;2022-10-16T01:20:42;7.20;;;1.67;;
26223;SDS011;14820;48.682;8.890;2022-10-16T01:28:52;4.10;;;1.50;;
26223;SDS011;14820;48.682;8.890;2022-10-16T01:31:19;1.85;;;1.50;;
26223;SDS011;14820;48.682;8.890;2022-10-16T01:33:51;2.65;;;1.40;;
26223;SDS011;14820;48.682;8.890;2022-10-16T01:36:35;4.15;;;1.58;;
26223;SDS011;14820;48.682;8.890;2022-10-16T01:39:04;1.85;;;1.48;;
26223;SDS011;14820;48.682;8.890;2022-10-16T01:41:34;2.60;;;1.40;;
26223;SDS011;14820;48.682;8.890;2022-10-16T01:44:05;4.72;;;1.42;;
26223;SDS011;14820;48.682;8.890;2022-10-16T01:46:39;2.83;;;1.60;;
26223;SDS011;14820;48.682;8.890;2022-10-16T01:49:10;2.58;;;1.73;;
26223;SDS011;14820;48.682;8.890;2022-10-16T01:51:37;1.70;;;1.30;;
26223;SDS011;14820;48.682;8.890;2022-10-16T01:54:04;2.25;;;1.40;;
26223;SDS011;14820;48.682;8.890;2022-10-16T01:56:33;2.20;;;1.20;;
26223;SDS011;14820;48.682;8.890;2022-10-16T01:59:05;6.32;;;1.40;;
26223;SDS011;14820;48.682;8.890;2022-10-16T02:01:35;4.93;;;1.50;;
26223;SDS011;14820;48.682;8.890;2022-10-16T02:04:09;1.95;;;1.45;;
26223;SDS011;14820;48.682;8.890;2022-10-16T02:06:40;2.55;;;1.50;;
26223;SDS011;14820;48.682;8.890;2022-10-16T02:09:06;3.13;;;1.58;;
26223;SDS011;14820;48.682;8.890;2022-10-16T02:11:32;2.95;;;1.50;;
26223;SDS011;14820;48.682;8.890;2022-10-16T02:13:58;4.22;;;2.30;;
26223;SDS011;14820;48.682;8.890;2022-10-16T02:16:41;2.80;;;1.50;;
26223;SDS011;14820;48.682;8.890;2022-10-16T02:19:09;2.08;;;1.30;;
26223;SDS011;14820;48.682;8.890;2022-10-16T02:26:54;6.70;;;1.60;;
26223;SDS011;14820;48.682;8.890;2022-10-16T02:29:28;1.88;;;1.50;;
26223;SDS011;14820;48.682;8.890;2022-10-16T02:31:58;2.08;;;1.50;;
26223;SDS011;14820;48.682;8.890;2022-10-16T02:34:29;2.20;;;1.40;;
26223;SDS011;14820;48.682;8.890;2022-10-16T02:36:56;5.53;;;1.50;;
26223;SDS011;14820;48.682;8.890;2022-10-16T02:39:24;2.72;;;1.40;;
26223;SDS011;14820;48.682;8.890;2022-10-16T02:41:52;4.78;;;1.45;;
26223;SDS011;14820;48.682;8.890;2022-10-16T02:44:18;3.75;;;1.25;;
26223;SDS011;14820;48.682;8.890;2022-10-16T02:46:44;2.78;;;1.52;;
26223;SDS011;14820;48.682;8.890;2022-10-16T02:49:09;2.35;;;1.42;;
26223;SDS011;14820;48.682;8.890;2022-10-16T02:51:35;4.18;;;1.45;;
26223;SDS011;14820;48.682;8.890;2022-10-16T02:54:01;4.60;;;1.23;;
26223;SDS011;14820;48.682;8.890;2022-10-16T02:56:27;3.22;;;1.40;;
26223;SDS011;14820;48.682;8.890;2022-10-16T02:58:53;1.55;;;1.42;;
26223;SDS011;14820;48.682;8.890;2022-10-16T03:01:18;3.92;;;1.50;;
26223;SDS011;14820;48.682;8.890;2022-10-16T03:03:44;2.03;;;1.40;;
26223;SDS011;14820;48.682;8.890;2022-10-16T03:06:10;4.70;;;1.40;;
26223;SDS011;14820;48.682;8.890;2022-10-16T03:08:35;1.70;;;1.15;;
26223;SDS011;14820;48.682;8.890;2022-10-16T03:11:01;5.47;;;1.50;;
26223;SDS011;14820;48.682;8.890;2022-10-16T03:13:26;2.05;;;1.30;;
26223;SDS011;14820;48.682;8.890;2022-10-16T03:15:52;2.60;;;1.20;;
26223;SDS011;14820;48.682;8.890;2022-10-16T03:18:18;2.20;;;1.30;;
26223;SDS011;14820;48.682;8.890;2022-10-16T03:20:43;2.67;;;1.60;;
26223;SDS011;14820;48.682;8.890;2022-10-16T03:23:09;1.48;;;1.38;;
26223;SDS011;14820;48.682;8.890;2022-10-16T03:25:35;2.58;;;1.30;;
26223;SDS011;14820;48.682;8.890;2022-10-16T03:28:00;3.08;;;1.60;;
26223;SDS011;14820;48.682;8.890;2022-10-16T03:30:26;3.63;;;1.60;;
26223;SDS011;14820;48.682;8.890;2022-10-16T03:32:52;2.20;;;1.50;;
26223;SDS011;14820;48.682;8.890;2022-10-16T03:35:22;1.88;;;1.42;;
26223;SDS011;14820;48.682;8.890;2022-10-16T03:37:48;4.15;;;1.42;;
26223;SDS011;14820;48.682;8.890;2022-10-16T03:40:14;3.38;;;1.45;;
26223;SDS011;14820;48.682;8.890;2022-10-16T03:42:41;2.90;;;1.48;;
26223;SDS011;14820;48.682;8.890;2022-10-16T03:45:08;3.67;;;1.80;;
26223;SDS011;14820;48.682;8.890;2022-10-16T03:47:34;11.13;;;4.63;;
26223;SDS011;14820;48.682;8.890;2022-10-16T03:49:59;36.45;;;11.23;;
26223;SDS011;14820;48.682;8.890;2022-10-16T03:52:25;28.67;;;9.07;;
26223;SDS011;14820;48.682;8.890;2022-10-16T03:54:51;16.35;;;5.38;;
26223;SDS011;14820;48.682;8.890;2022-10-16T03:57:17;10.23;;;4.05;;
26223;SDS011;14820;48.682;8.890;2022-10-16T03:59:43;7.90;;;3.83;;
26223;SDS011;14820;48.682;8.890;2022-10-16T04:02:09;5.70;;;2.45;;
26223;SDS011;14820;48.682;8.890;2022-10-16T04:04:34;5.50;;;2.17;;
26223;SDS011;14820;48.682;8.890;2022-10-16T04:07:00;2.30;;;1.70;;
26223;SDS011;14820;48.682;8.890;2022-10-16T04:09:26;5.40;;;1.67;;
26223;SDS011;14820;48.682;8.890;2022-10-16T04:11:52;2.22;;;1.63;;
26223;SDS011;14820;48.682;8.890;2022-10-16T04:14:18;6.45;;;1.67;;
26223;SDS011;14820;48.682;8.890;2022-10-16T04:16:44;2.22;;;1.83;;
26223;SDS011;14820;48.682;8.890;2022-10-16T04:19:10;2.58;;;1.70;;
26223;SDS011;14820;48.682;8.890;2022-10-16T04:21:36;4.18;;;1.80;;
26223;SDS011;14820;48.682;8.890;2022-10-16T04:24:02;4.97;;;1.67;;
26223;SDS011;14820;48.682;8.890;2022-10-16T04:26:28;2.92;;;1.92;;
26223;SDS011;14820;48.682;8.890;2022-10-16T04:28:54;3.65;;;1.73;;
26223;SDS011;14820;48.682;8.890;2022-10-16T04:31:20;4.32;;;1.70;;
26223;SDS011;14820;48.682;8.890;2022-10-16T04:33:46;1.80;;;1.55;;
26223;SDS011;14820;48.682;8.890;2022-10-16T04:36:12;6.82;;;1.70;;
26223;SDS011;14820;48.682;8.890;2022-10-16T04:38:38;3.15;;;1.83;;
26223;SDS011;14820;48.682;8.890;2022-10-16T04:41:04;2.20;;;1.40;;
26223;SDS011;14820;48.682;8.890;2022-10-16T04:43:30;2.63;;;1.70;;
26223;SDS011;14820;48.682;8.890;2022-10-16T04:45:56;4.93;;;1.70;;
26223;SDS011;14820;48.682;8.890;2022-10-16T04:48:22;4.75;;;1.55;;
26223;SDS011;14820;48.682;8.890;2022-10-16T04:50:48;4.20;;;1.73;;
26223;SDS011;14820;48.682;8.890;2022-10-16T04:53:13;1.98;;;1.50;;
26223;SDS011;14820;48.682;8.890;2022-10-16T04:55:39;5.57;;;1.58;;
26223;SDS011;14820;48.682;8.890;2022-10-16T04:58:06;5.35;;;2.00;;
26223;SDS011;14820;48.682;8.890;2022-10-16T05:00:32;3.90;;;2.03;;
26223;SDS011;14820;48.682;8.890;2022-10-16T05:02:58;5.80;;;1.83;;
26223;SDS011;14820;48.682;8.890;2022-10-16T05:05:25;3.53;;;1.67;;
26223;SDS011;14820;48.682;8.890;2022-10-16T05:07:52;1.63;;;1.42;;
26223;SDS011;14820;48.682;8.890;2022-10-16T05:10:18;1.45;;;1.35;;
26223;SDS011;14820;48.682;8.890;2022-10-16T05:12:44;2.28;;;1.67;;
26223;SDS011;14820;48.682;8.890;2022-10-16T05:15:11;4.95;;;2.00;;
26223;SDS011;14820;48.682;8.890;2022-10-16T05:17:37;6.30;;;2.00;;
26223;SDS011;14820;48.682;8.890;2022-10-16T05:20:03;3.60;;;1.80;;
26223;SDS011;14820;48.682;8.890;2022-10-16T05:22:29;4.20;;;1.75;;
26223;SDS011;14820;48.682;8.890;2022-10-16T05:24:54;3.35;;;2.10;;
26223;SDS011;14820;48.682;8.890;2022-10-16T05:27:20;2.75;;;1.50;;
26223;SDS011;14820;48.682;8.890;2022-10-16T05:29:46;2.15;;;1.73;;
26223;SDS011;14820;48.682;8.890;2022-10-16T05:32:15;4.95;;;1.98;;
26223;SDS011;14820;48.682;8.890;2022-10-16T05:34:42;7.03;;;2.10;;
26223;SDS011;14820;48.682;8.890;2022-10-16T05:37:08;6.60;;;1.60;;
26223;SDS011;14820;48.682;8.890;2022-10-16T05:39:34;2.92;;;1.60;;
26223;SDS011;14820;48.682;8.890;2022-10-16T05:41:59;2.40;;;1.63;;
26223;SDS011;14820;48.682;8.890;2022-10-16T05:44:25;3.30;;;1.60;;
26223;SDS011;14820;48.682;8.890;2022-10-16T05:46:51;8.77;;;2.30;;
26223;SDS011;14820;48.682;8.890;2022-10-16T05:49:16;3.95;;;2.83;;
26223;SDS011;14820;48.682;8.890;2022-10-16T05:51:42;6.55;;;3.10;;
26223;SDS011;14820;48.682;8.890;2022-10-16T05:54:08;8.90;;;2.70;;
26223;SDS011;14820;48.682;8.890;2022-10-16T05:56:34;5.05;;;2.80;;
26223;SDS011;14820;48.682;8.890;2022-10-16T05:58:59;5.55;;;2.65;;
26223;SDS011;14820;48.682;8.890;2022-10-16T06:01:25;11.27;;;2.67;;
26223;SDS011;14820;48.682;8.890;2022-10-16T06:03:51;7.22;;;2.50;;
26223;SDS011;14820;48.682;8.890;2022-10-16T06:06:18;2.33;;;1.73;;
26223;SDS011;14820;48.682;8.890;2022-10-16T06:08:46;8.82;;;1.90;;
26223;SDS011;14820;48.682;8.890;2022-10-16T06:11:16;5.10;;;3.47;;
26223;SDS011;14820;48.682;8.890;2022-10-16T06:13:53;9.07;;;3.92;;
26223;SDS011;14820;48.682;8.890;2022-10-16T06:16:26;3.45;;;3.00;;
26223;SDS011;14820;48.682;8.890;2022-10-16T06:18:52;5.07;;;2.95;;
26223;SDS011;14820;48.682;8.890;2022-10-16T06:21:20;3.10;;;2.33;;
26223;SDS011;14820;48.682;8.890;2022-10-16T06:23:47;8.75;;;2.65;;
26223;SDS011;14820;48.682;8.890;2022-10-16T06:26:15;4.18;;;2.72;;
26223;SDS011;14820;48.682;8.890;2022-10-16T06:28:42;4.45;;;3.10;;
26223;SDS011;14820;48.682;8.890;2022-10-16T06:31:09;10.18;;;2.60;;
26223;SDS011;14820;48.682;8.890;2022-10-16T06:33:36;8.20;;;2.92;;
26223;SDS011;14820;48.682;8.890;2022-10-16T06:36:03;3.85;;;2.65;;
26223;SDS011;14820;48.682;8.890;2022-10-16T06:38:40;4.45;;;2.35;;
26223;SDS011;14820;48.682;8.890;2022-10-16T06:41:07;6.85;;;2.45;;
26223;SDS011;14820;48.682;8.890;2022-10-16T06:43:34;9.57;;;2.80;;
26223;SDS011;14820;48.682;8.890;2022-10-16T06:46:00;5.43;;;2.45;;
26223;SDS011;14820;48.682;8.890;2022-10-16T06:48:27;5.40;;;2.33;;
26223;SDS011;14820;48.682;8.890;2022-10-16T06:51:03;10.45;;;2.42;;
26223;SDS011;14820;48.682;8.890;2022-10-16T06:53:37;7.07;;;2.92;;
26223;SDS011;14820;48.682;8.890;2022-10-16T06:56:12;8.48;;;3.38;;
26223;SDS011;14820;48.682;8.890;2022-10-16T06:58:40;7.70;;;3.00;;
26223;SDS011;14820;48.682;8.890;2022-10-16T07:01:07;5.32;;;2.60;;
26223;SDS011;14820;48.682;8.890;2022-10-16T07:03:35;4.95;;;2.53;;
26223;SDS011;14820;48.682;8.890;2022-10-16T07:06:03;4.30;;;2.20;;
26223;SDS011;14820;48.682;8.890;2022-10-16T07:08:40;3.72;;;2.35;;
26223;SDS011;14820;48.682;8.890;2022-10-16T07:11:09;2.25;;;2.05;;
26223;SDS011;14820;48.682;8.890;2022-10-16T07:13:36;2.60;;;2.22;;
26223;SDS011;14820;48.682;8.890;2022-10-16T07:18:58;3.22;;;2.58;;
26223;SDS011;14820;48.682;8.890;2022-10-16T07:21:26;7.95;;;3.10;;
26223;SDS011;14820;48.682;8.890;2022-10-16T07:23:57;5.50;;;3.05;;
26223;SDS011;14820;48.682;8.890;2022-10-16T07:26:26;9.77;;;3.35;;
26223;SDS011;14820;48.682;8.890;2022-10-16T07:28:53;5.90;;;2.90;;
26223;SDS011;14820;48.682;8.890;2022-10-16T07:31:19;4.25;;;2.72;;
26223;SDS011;14820;48.682;8.890;2022-10-16T07:33:46;9.80;;;4.05;;
26223;SDS011;14820;48.682;8.890;2022-10-16T07:36:14;8.70;;;4.10;;
26223;SDS011;14820;48.682;8.890;2022-10-16T07:38:41;11.82;;;3.95;;
26223;SDS011;14820;48.682;8.890;2022-10-16T07:41:13;4.40;;;3.17;;
26223;SDS011;14820;48.682;8.890;2022-10-16T07:43:48;6.72;;;3.50;;
26223;SDS011;14820;48.682;8.890;2022-10-16T07:46:16;6.80;;;3.05;;
26223;SDS011;14820;48.682;8.890;2022-10-16T07:48:42;4.95;;;2.90;;
26223;SDS011;14820;48.682;8.890;2022-10-16T07:51:11;4.40;;;2.60;;
26223;SDS011;14820;48.682;8.890;2022-10-16T07:53:38;5.07;;;2.90;;
26223;SDS011;14820;48.682;8.890;2022-10-16T07:56:05;3.97;;;2.45;;
26223;SDS011;14820;48.682;8.890;2022-10-16T07:58:32;4.45;;;3.35;;
26223;SDS011;14820;48.682;8.890;2022-10-16T08:00:59;7.82;;;3.10;;
26223;SDS011;14820;48.682;8.890;2022-10-16T08:03:29;4.28;;;3.10;;
26223;SDS011;14820;48.682;8.890;2022-10-16T08:05:56;4.35;;;2.88;;
26223;SDS011;14820;48.682;8.890;2022-10-16T08:08:22;3.35;;;2.72;;
26223;SDS011;14820;48.682;8.890;2022-10-16T08:10:48;5.15;;;3.20;;
26223;SDS011;14820;48.682;8.890;2022-10-16T08:13:14;3.55;;;2.70;;
26223;SDS011;14820;48.682;8.890;2022-10-16T08:15:43;3.33;;;2.60;;
26223;SDS011;14820;48.682;8.890;2022-10-16T08:18:10;5.68;;;2.75;;
26223;SDS011;14820;48.682;8.890;2022-10-16T08:20:37;3.05;;;2.40;;
26223;SDS011;14820;48.682;8.890;2022-10-16T08:23:03;5.78;;;2.40;;
26223;SDS011;14820;48.682;8.890;2022-10-16T08:25:29;6.13;;;2.22;;
26223;SDS011;14820;48.682;8.890;2022-10-16T08:27:55;2.17;;;1.98;;
26223;SDS011;14820;48.682;8.890;2022-10-16T08:30:22;3.88;;;2.13;;
26223;SDS011;14820;48.682;8.890;2022-10-16T08:32:49;3.55;;;2.08;;
26223;SDS011;14820;48.682;8.890;2022-10-16T08:35:15;5.80;;;2.60;;
26223;SDS011;14820;48.682;8.890;2022-10-16T08:37:41;5.38;;;3.30;;
26223;SDS011;14820;48.682;8.890;2022-10-16T08:40:13;6.95;;;3.78;;
26223;SDS011;14820;48.682;8.890;2022-10-16T08:48:34;4.80;;;3.15;;
26223;SDS011;14820;48.682;8.890;2022-10-16T08:51:08;7.05;;;3.67;;
26223;SDS011;14820;48.682;8.890;2022-10-16T08:53:52;7.57;;;3.40;;
26223;SDS011;14820;48.682;8.890;2022-10-16T08:56:20;6.53;;;3.22;;
26223;SDS011;14820;48.682;8.890;2022-10-16T08:58:46;4.05;;;1.98;;
26223;SDS011;14820;48.682;8.890;2022-10-16T09:01:13;3.78;;;2.33;;
26223;SDS011;14820;48.682;8.890;2022-10-16T09:19:59;4.30;;;2.00;;
26223;SDS011;14820;48.682;8.890;2022-10-16T09:22:44;2.85;;;2.15;;
26223;SDS011;14820;48.682;8.890;2022-10-16T09:25:13;1.90;;;1.58;;
26223;SDS011;14820;48.682;8.890;2022-10-16T09:27:40;3.65;;;1.85;;
26223;SDS011;14820;48.682;8.890;2022-10-16T09:30:16;3.13;;;1.30;;
26223;SDS011;14820;48.682;8.890;2022-10-16T09:32:44;3.85;;;1.63;;
26223;SDS011;14820;48.682;8.890;2022-10-16T09:35:14;1.67;;;1.40;;
26223;SDS011;14820;48.682;8.890;2022-10-16T09:38:00;1.90;;;1.33;;
26223;SDS011;14820;48.682;8.890;2022-10-16T09:40:37;2.88;;;1.48;;
26223;SDS011;14820;48.682;8.890;2022-10-16T09:43:20;3.90;;;2.13;;
26223;SDS011;14820;48.682;8.890;2022-10-16T09:45:55;3.20;;;1.80;;
26223;SDS011;14820;48.682;8.890;2022-10-16T09:48:36;1.83;;;1.50;;
26223;SDS011;14820;48.682;8.890;2022-10-16T09:51:16;7.45;;;1.70;;
26223;SDS011;14820;48.682;8.890;2022-10-16T09:53:46;2.25;;;1.70;;
26223;SDS011;14820;48.682;8.890;2022-10-16T09:56:20;3.65;;;2.42;;
26223;SDS011;14820;48.682;8.890;2022-10-16T09:58:55;4.50;;;1.40;;
26223;SDS011;14820;48.682;8.890;2022-10-16T10:01:24;3.30;;;1.50;;
26223;SDS011;14820;48.682;8.890;2022-10-16T10:03:57;3.30;;;2.00;;
26223;SDS011;14820;48.682;8.890;2022-10-16T10:06:30;1.75;;;1.40;;
26223;SDS011;14820;48.682;8.890;2022-10-16T10:09:06;4.78;;;1.50;;
26223;SDS011;14820;48.682;8.890;2022-10-16T10:14:17;1.55;;;1.27;;
26223;SDS011;14820;48.682;8.890;2022-10-16T10:16:50;1.90;;;1.30;;
26223;SDS011;14820;48.682;8.890;2022-10-16T10:19:19;4.68;;;1.23;;
26223;SDS011;14820;48.682;8.890;2022-10-16T10:21:46;5.43;;;1.60;;
26223;SDS011;14820;48.682;8.890;2022-10-16T10:24:14;2.25;;;1.60;;
26223;SDS011;14820;48.682;8.890;2022-10-16T10:27:00;2.22;;;1.38;;
26223;SDS011;14820;48.682;8.890;2022-10-16T10:29:38;4.30;;;1.42;;
26223;SDS011;14820;48.682;8.890;2022-10-16T10:45:47;4.85;;;1.30;;
26223;SDS011;14820;48.682;8.890;2022-10-16T10:48:20;2.28;;;1.40;;
26223;SDS011;14820;48.682;8.890;2022-10-16T10:51:08;5.75;;;1.58;;
26223;SDS011;14820;48.682;8.890;2022-10-16T10:56:51;3.13;;;1.40;;
26223;SDS011;14820;48.682;8.890;2022-10-16T11:02:40;2.28;;;1.33;;
26223;SDS011;14820;48.682;8.890;2022-10-16T11:08:19;2.08;;;1.20;;
26223;SDS011;14820;48.682;8.890;2022-10-16T11:15:47;3.22;;;1.25;;
26223;SDS011;14820;48.682;8.890;2022-10-16T11:18:18;2.17;;;1.20;;
26223;SDS011;14820;48.682;8.890;2022-10-16T11:20:56;5.90;;;1.40;;
26223;SDS011;14820;48.682;8.890;2022-10-16T11:25:59;1.77;;;1.30;;
26223;SDS011;14820;48.682;8.890;2022-10-16T11:39:01;7.88;;;1.17;;
26223;SDS011;14820;48.682;8.890;2022-10-16T11:41:39;3.35;;;1.40;;
26223;SDS011;14820;48.682;8.890;2022-10-16T11:53:13;2.67;;;1.25;;
26223;SDS011;14820;48.682;8.890;2022-10-16T11:55:46;1.50;;;1.23;;
26223;SDS011;14820;48.682;8.890;2022-10-16T12:03:35;2.55;;;1.20;;
26223;SDS011;14820;48.682;8.890;2022-10-16T12:08:50;1.70;;;1.38;;
26223;SDS011;14820;48.682;8.890;2022-10-16T12:11:22;1.40;;;1.27;;
26223;SDS011;14820;48.682;8.890;2022-10-16T12:13:51;3.53;;;1.25;;
26223;SDS011;14820;48.682;8.890;2022-10-16T12:16:28;3.00;;;1.80;;
26223;SDS011;14820;48.682;8.890;2022-10-16T12:19:10;1.30;;;1.20;;
26223;SDS011;14820;48.682;8.890;2022-10-16T12:21:35;1.83;;;1.30;;
26223;SDS011;14820;48.682;8.890;2022-10-16T12:24:02;4.05;;;1.42;;
26223;SDS011;14820;48.682;8.890;2022-10-16T12:26:32;3.45;;;1.35;;
26223;SDS011;14820;48.682;8.890;2022-10-16T12:29:14;1.83;;;1.10;;
26223;SDS011;14820;48.682;8.890;2022-10-16T12:32:26;1.85;;;1.50;;
26223;SDS011;14820;48.682;8.890;2022-10-16T12:34:55;2.42;;;1.92;;
26223;SDS011;14820;48.682;8.890;2022-10-16T12:37:32;3.88;;;1.60;;
26223;SDS011;14820;48.682;8.890;2022-10-16T12:40:04;4.80;;;1.60;;
26223;SDS011;14820;48.682;8.890;2022-10-16T12:42:39;4.70;;;1.48;;
26223;SDS011;14820;48.682;8.890;2022-10-16T12:47:49;1.83;;;1.25;;
26223;SDS011;14820;48.682;8.890;2022-10-16T12:52:48;4.47;;;1.77;;
26223;SDS011;14820;48.682;8.890;2022-10-16T12:55:18;1.75;;;1.27;;
26223;SDS011;14820;48.682;8.890;2022-10-16T12:58:00;1.77;;;1.30;;
26223;SDS011;14820;48.682;8.890;2022-10-16T13:12:27;2.28;;;1.40;;
26223;SDS011;14820;48.682;8.890;2022-10-16T13:15:27;2.45;;;1.50;;
26223;SDS011;14820;48.682;8.890;2022-10-16T13:18:16;3.20;;;1.40;;
26223;SDS011;14820;48.682;8.890;2022-10-16T13:29:09;2.38;;;1.58;;
26223;SDS011;14820;48.682;8.890;2022-10-16T13:31:36;4.55;;;1.50;;
26223;SDS011;14820;48.682;8.890;2022-10-16T13:34:04;2.65;;;1.38;;
26223;SDS011;14820;48.682;8.890;2022-10-16T13:36:35;4.90;;;1.30;;
26223;SDS011;14820;48.682;8.890;2022-10-16T13:39:13;1.88;;;1.50;;
26223;SDS011;14820;48.682;8.890;2022-10-16T13:41:46;2.33;;;1.70;;
26223;SDS011;14820;48.682;8.890;2022-10-16T13:44:35;2.00;;;1.35;;
26223;SDS011;14820;48.682;8.890;2022-10-16T13:47:05;1.42;;;1.33;;
26223;SDS011;14820;48.682;8.890;2022-10-16T13:49:39;3.50;;;1.55;;
26223;SDS011;14820;48.682;8.890;2022-10-16T13:52:05;2.65;;;1.45;;
26223;SDS011;14820;48.682;8.890;2022-10-16T13:54:31;1.92;;;1.40;;
26223;SDS011;14820;48.682;8.890;2022-10-16T13:57:04;1.60;;;1.30;;
26223;SDS011;14820;48.682;8.890;2022-10-16T13:59:37;3.35;;;1.30;;
26223;SDS011;14820;48.682;8.890;2022-10-16T14:04:47;1.40;;;1.23;;
26223;SDS011;14820;48.682;8.890;2022-10-16T14:07:14;2.25;;;1.42;;
26223;SDS011;14820;48.682;8.890;2022-10-16T14:09:48;1.35;;;1.25;;
26223;SDS011;14820;48.682;8.890;2022-10-16T14:12:15;2.67;;;1.27;;
26223;SDS011;14820;48.682;8.890;2022-10-16T14:14:42;1.55;;;1.35;;
26223;SDS011;14820;48.682;8.890;2022-10-16T14:17:20;2.03;;;1.50;;
26223;SDS011;14820;48.682;8.890;2022-10-16T14:19:54;2.38;;;1.45;;
26223;SDS011;14820;48.682;8.890;2022-10-16T14:25:13;1.65;;;1.38;;
26223;SDS011;14820;48.682;8.890;2022-10-16T14:27:45;2.17;;;1.52;;
26223;SDS011;14820;48.682;8.890;2022-10-16T14:30:22;2.55;;;1.45;;
26223;SDS011;14820;48.682;8.890;2022-10-16T14:32:55;6.00;;;1.38;;
26223;SDS011;14820;48.682;8.890;2022-10-16T14:35:27;4.55;;;1.45;;
26223;SDS011;14820;48.682;8.890;2022-10-16T14:38:01;2.65;;;1.65;;
26223;SDS011;14820;48.682;8.890;2022-10-16T14:40:32;1.77;;;1.42;;
26223;SDS011;14820;48.682;8.890;2022-10-16T14:43:02;1.85;;;1.60;;
26223;SDS011;14820;48.682;8.890;2022-10-16T14:45:30;5.22;;;1.85;;
26223;SDS011;14820;48.682;8.890;2022-10-16T14:47:59;4.38;;;1.90;;
26223;SDS011;14820;48.682;8.890;2022-10-16T14:50:27;2.45;;;1.77;;
26223;SDS011;14820;48.682;8.890;2022-10-16T14:52:53;3.00;;;1.60;;
26223;SDS011;14820;48.682;8.890;2022-10-16T14:55:23;2.38;;;1.60;;
26223;SDS011;14820;48.682;8.890;2022-10-16T14:57:50;2.83;;;1.83;;
26223;SDS011;14820;48.682;8.890;2022-10-16T15:00:19;3.05;;;1.80;;
26223;SDS011;14820;48.682;8.890;2022-10-16T15:02:48;1.77;;;1.35;;
26223;SDS011;14820;48.682;8.890;2022-10-16T15:05:18;3.97;;;1.80;;
26223;SDS011;14820;48.682;8.890;2022-10-16T15:07:46;2.78;;;1.90;;
26223;SDS011;14820;48.682;8.890;2022-10-16T15:10:14;2.25;;;1.58;;
26223;SDS011;14820;48.682;8.890;2022-10-16T15:12:41;4.07;;;2.10;;
26223;SDS011;14820;48.682;8.890;2022-10-16T15:15:15;4.38;;;2.50;;
26223;SDS011;14820;48.682;8.890;2022-10-16T15:18:06;4.47;;;2.60;;
26223;SDS011;14820;48.682;8.890;2022-10-16T15:20:36;4.90;;;2.38;;
26223;SDS011;14820;48.682;8.890;2022-10-16T15:23:04;4.40;;;2.35;;
26223;SDS011;14820;48.682;8.890;2022-10-16T15:25:41;3.97;;;2.40;;
26223;SDS011;14820;48.682;8.890;2022-10-16T15:28:07;3.78;;;2.15;;
26223;SDS011;14820;48.682;8.890;2022-10-16T15:30:34;7.50;;;2.15;;
26223;SDS011;14820;48.682;8.890;2022-10-16T15:33:01;5.72;;;2.50;;
26223;SDS011;14820;48.682;8.890;2022-10-16T15:35:27;4.75;;;2.50;;
26223;SDS011;14820;48.682;8.890;2022-10-16T15:37:53;6.10;;;3.28;;
26223;SDS011;14820;48.682;8.890;2022-10-16T15:40:19;7.47;;;3.20;;
26223;SDS011;14820;48.682;8.890;2022-10-16T15:42:45;5.95;;;4.10;;
26223;SDS011;14820;48.682;8.890;2022-10-16T15:45:12;5.65;;;4.15;;
26223;SDS011;14820;48.682;8.890;2022-10-16T15:47:38;7.38;;;4.65;;
26223;SDS011;14820;48.682;8.890;2022-10-16T15:50:06;7.00;;;4.57;;
26223;SDS011;14820;48.682;8.890;2022-10-16T15:52:32;6.05;;;4.22;;
26223;SDS011;14820;48.682;8.890;2022-10-16T15:54:58;6.15;;;2.92;;
26223;SDS011;14820;48.682;8.890;2022-10-16T15:57:23;5.43;;;2.67;;
26223;SDS011;14820;48.682;8.890;2022-10-16T15:59:50;7.63;;;2.50;;
26223;SDS011;14820;48.682;8.890;2022-10-16T16:02:16;5.88;;;2.30;;
26223;SDS011;14820;48.682;8.890;2022-10-16T16:04:41;4.07;;;2.60;;
26223;SDS011;14820;48.682;8.890;2022-10-16T16:07:07;6.55;;;2.97;;
26223;SDS011;14820;48.682;8.890;2022-10-16T16:09:33;7.75;;;2.80;;
26223;SDS011;14820;48.682;8.890;2022-10-16T16:11:59;9.60;;;3.00;;
26223;SDS011;14820;48.682;8.890;2022-10-16T16:14:26;4.15;;;2.53;;
26223;SDS011;14820;48.682;8.890;2022-10-16T16:16:56;6.55;;;2.92;;
26223;SDS011;14820;48.682;8.890;2022-10-16T16:19:22;3.92;;;2.55;;
26223;SDS011;14820;48.682;8.890;2022-10-16T16:21:49;7.30;;;2.63;;
26223;SDS011;14820;48.682;8.890;2022-10-16T16:24:15;5.10;;;3.50;;
26223;SDS011;14820;48.682;8.890;2022-10-16T16:26:41;10.05;;;3.33;;
26223;SDS011;14820;48.682;8.890;2022-10-16T16:29:11;5.97;;;3.28;;
26223;SDS011;14820;48.682;8.890;2022-10-16T16:31:38;5.25;;;2.25;;
26223;SDS011;14820;48.682;8.890;2022-10-16T16:34:05;4.03;;;2.10;;
26223;SDS011;14820;48.682;8.890;2022-10-16T16:36:32;6.82;;;2.38;;
26223;SDS011;14820;48.682;8.890;2022-10-16T16:38:59;2.83;;;2.35;;
26223;SDS011;14820;48.682;8.890;2022-10-16T16:41:26;8.77;;;3.22;;
26223;SDS011;14820;48.682;8.890;2022-10-16T16:43:54;7.07;;;2.30;;
26223;SDS011;14820;48.682;8.890;2022-10-16T16:46:21;2.88;;;2.10;;
26223;SDS011;14820;48.682;8.890;2022-10-16T16:48:47;6.20;;;2.40;;
26223;SDS011;14820;48.682;8.890;2022-10-16T16:51:15;9.38;;;4.32;;
26223;SDS011;14820;48.682;8.890;2022-10-16T16:53:45;8.00;;;4.45;;
26223;SDS011;14820;48.682;8.890;2022-10-16T16:56:12;7.47;;;4.00;;
26223;SDS011;14820;48.682;8.890;2022-10-16T16:58:38;16.45;;;4.05;;
26223;SDS011;14820;48.682;8.890;2022-10-16T17:01:05;12.32;;;3.58;;
26223;SDS011;14820;48.682;8.890;2022-10-16T17:03:31;9.88;;;4.38;;
26223;SDS011;14820;48.682;8.890;2022-10-16T17:06:00;7.20;;;4.45;;
26223;SDS011;14820;48.682;8.890;2022-10-16T17:08:27;8.05;;;5.20;;
26223;SDS011;14820;48.682;8.890;2022-10-16T17:10:54;14.48;;;6.32;;
26223;SDS011;14820;48.682;8.890;2022-10-16T17:13:21;15.68;;;5.72;;
26223;SDS011;14820;48.682;8.890;2022-10-16T17:15:48;9.55;;;5.97;;
26223;SDS011;14820;48.682;8.890;2022-10-16T17:18:15;11.15;;;5.40;;
26223;SDS011;14820;48.682;8.890;2022-10-16T17:20:41;12.73;;;5.63;;